createdAt,value
2022-12-26T00:01:02.869Z,8.33
2022-12-26T00:06:14.219Z,8.33
2022-12-26T00:11:20.148Z,7.80
2022-12-26T00:16:26.497Z,8.07
2022-12-26T00:21:32.468Z,6.70
2022-12-26T00:26:38.139Z,6.20
2022-12-26T00:31:43.682Z,5.67
2022-12-26T00:36:49.300Z,5.00
2022-12-26T00:41:54.820Z,5.80
2022-12-26T00:47:00.417Z,5.60
2022-12-26T00:52:06.388Z,6.13
2022-12-26T00:57:12.037Z,7.30
2022-12-26T01:02:35.259Z,6.20
2022-12-26T01:08:23.074Z,7.23
2022-12-26T01:12:49.164Z,6.87
2022-12-26T01:17:54.755Z,7.50
2022-12-26T01:23:00.280Z,7.23
2022-12-26T01:28:06.120Z,7.83
2022-12-26T01:33:11.545Z,7.50
2022-12-26T01:38:17.477Z,7.37
2022-12-26T01:43:22.993Z,7.63
2022-12-26T01:48:33.130Z,8.13
2022-12-26T01:53:44.117Z,7.93
2022-12-26T01:58:55.300Z,7.47
2022-12-26T02:04:21.886Z,7.87
2022-12-26T02:09:27.421Z,7.73
2022-12-26T02:14:34.440Z,7.27
2022-12-26T02:19:54.611Z,7.33
2022-12-26T02:25:24.198Z,7.47
2022-12-26T02:30:38.365Z,8.30
2022-12-26T02:35:59.010Z,7.63
2022-12-26T02:41:18.019Z,8.57
2022-12-26T02:46:44.034Z,7.90
2022-12-26T02:52:13.230Z,7.30
2022-12-26T02:57:39.270Z,7.80
2022-12-26T03:03:17.964Z,7.83
2022-12-26T03:08:50.411Z,7.60
2022-12-26T03:13:58.855Z,8.07
2022-12-26T03:19:07.357Z,6.77
2022-12-26T03:24:15.625Z,6.93
2022-12-26T03:29:41.553Z,7.87
2022-12-26T03:34:46.952Z,7.00
2022-12-26T03:40:29.637Z,7.57
2022-12-26T03:46:12.639Z,6.83
2022-12-26T03:51:39.222Z,6.73
2022-12-26T03:57:05.575Z,7.27
2022-12-26T04:02:30.981Z,7.17
2022-12-26T04:07:58.439Z,7.43
2022-12-26T04:13:25.364Z,8.00
2022-12-26T04:19:04.337Z,6.63
2022-12-26T04:24:34.327Z,7.50
2022-12-26T04:29:58.112Z,7.10
2022-12-26T04:35:30.501Z,6.90
2022-12-26T04:40:57.150Z,6.70
2022-12-26T04:46:03.453Z,7.30
2022-12-26T04:51:09.013Z,5.40
2022-12-26T04:56:14.966Z,6.80
2022-12-26T05:01:38.347Z,5.93
2022-12-26T05:07:01.830Z,6.77
2022-12-26T05:12:09.966Z,6.63
2022-12-26T05:17:34.093Z,7.43
2022-12-26T05:23:01.097Z,6.77
2022-12-26T05:28:25.540Z,6.80
2022-12-26T05:33:49.374Z,7.13
2022-12-26T05:38:56.298Z,6.63
2022-12-26T05:44:01.819Z,6.17
2022-12-26T05:49:08.219Z,6.50
2022-12-26T05:54:13.713Z,6.40
2022-12-26T05:59:19.171Z,5.70
2022-12-26T06:04:24.709Z,5.87
2022-12-26T06:09:30.237Z,6.30
2022-12-26T06:14:35.612Z,6.40
2022-12-26T06:19:46.559Z,5.83
2022-12-26T06:24:48.324Z,6.03
2022-12-26T06:29:53.713Z,5.73
2022-12-26T06:34:59.509Z,4.60
2022-12-26T06:40:05.483Z,5.20
2022-12-26T06:45:11.970Z,4.37
2022-12-26T06:50:17.592Z,4.77
2022-12-26T06:55:23.268Z,4.33
2022-12-26T07:00:30.415Z,3.57
2022-12-26T07:05:38.083Z,3.77
2022-12-26T07:10:43.509Z,3.30
2022-12-26T07:15:48.966Z,3.60
2022-12-26T07:20:54.505Z,2.80
2022-12-26T07:26:00.522Z,2.57
2022-12-26T07:31:06.554Z,2.77
2022-12-26T07:36:12.216Z,2.57
2022-12-26T07:41:35.570Z,2.83
2022-12-26T07:46:41.075Z,2.30
2022-12-26T07:51:46.522Z,2.00
2022-12-26T07:56:51.986Z,2.10
2022-12-26T08:01:59.396Z,2.03
2022-12-26T08:07:05.275Z,1.80
2022-12-26T08:12:11.039Z,1.70
2022-12-26T08:17:16.909Z,1.90
2022-12-26T08:22:22.331Z,1.73
2022-12-26T08:27:27.709Z,1.87
2022-12-26T08:32:33.158Z,1.90
2022-12-26T08:37:38.549Z,1.80
2022-12-26T08:42:56.109Z,1.60
2022-12-26T08:47:52.115Z,1.37
2022-12-26T08:52:57.501Z,1.30
2022-12-26T08:58:02.914Z,1.50
2022-12-26T09:03:08.816Z,1.53
2022-12-26T09:08:14.631Z,1.20
2022-12-26T09:13:20.382Z,1.17
2022-12-26T09:18:25.837Z,1.53
2022-12-26T09:23:31.868Z,1.73
2022-12-26T09:28:38.127Z,1.50
2022-12-26T09:33:43.594Z,1.20
2022-12-26T09:38:50.481Z,1.70
2022-12-26T09:44:15.480Z,1.10
2022-12-26T09:49:26.492Z,0.90
2022-12-26T09:54:37.740Z,1.13
2022-12-26T09:59:49.250Z,1.37
2022-12-26T10:04:55.880Z,1.23
2022-12-26T10:10:16.539Z,1.20
2022-12-26T10:15:33.877Z,1.20
2022-12-26T10:20:57.114Z,1.00
2022-12-26T10:26:23.322Z,1.00
2022-12-26T10:31:38.360Z,1.20
2022-12-26T10:36:52.905Z,1.30
2022-12-26T10:42:01.638Z,1.07
2022-12-26T10:47:16.028Z,1.10
2022-12-26T10:52:24.472Z,1.07
2022-12-26T10:57:33.218Z,1.40
2022-12-26T11:02:38.781Z,1.47
2022-12-26T11:07:59.375Z,1.90
2022-12-26T11:13:08.271Z,2.00
2022-12-26T11:18:26.017Z,2.83
2022-12-26T11:23:34.980Z,2.00
2022-12-26T11:28:40.519Z,2.27
2022-12-26T11:33:48.664Z,1.90
2022-12-26T11:39:05.923Z,2.63
2022-12-26T11:44:14.430Z,2.17
2022-12-26T11:49:22.866Z,2.47
2022-12-26T11:54:31.665Z,2.10
2022-12-26T11:59:37.274Z,2.27
2022-12-26T12:04:43.646Z,2.70
2022-12-26T12:10:13.657Z,2.63
2022-12-26T12:15:22.275Z,2.20
2022-12-26T12:20:44.389Z,2.27
2022-12-26T12:26:01.426Z,2.63
2022-12-26T12:31:33.006Z,2.50
2022-12-26T12:37:15.411Z,2.27
2022-12-26T12:42:26.654Z,2.77
2022-12-26T12:47:41.087Z,2.10
2022-12-26T12:52:55.740Z,2.73
2022-12-26T12:58:16.169Z,2.70
2022-12-26T13:03:36.860Z,2.57
2022-12-26T13:08:45.461Z,2.30
2022-12-26T13:14:09.989Z,2.40
2022-12-26T13:19:21.437Z,2.07
2022-12-26T13:24:45.853Z,2.40
2022-12-26T13:29:52.868Z,1.80
2022-12-26T13:35:01.009Z,2.33
2022-12-26T13:40:18.270Z,1.73
2022-12-26T13:45:46.515Z,2.30
2022-12-26T13:51:04.037Z,2.43
2022-12-26T13:56:21.509Z,2.47
2022-12-26T14:02:02.987Z,2.40
2022-12-26T14:07:09.058Z,2.50
2022-12-26T14:12:36.762Z,2.60
2022-12-26T14:18:03.388Z,2.57
2022-12-26T14:23:12.055Z,2.77
2022-12-26T14:28:26.315Z,2.67
2022-12-26T14:33:55.279Z,2.67
2022-12-26T14:39:06.511Z,2.53
2022-12-26T14:44:20.754Z,2.60
2022-12-26T14:49:35.977Z,2.53
2022-12-26T14:54:50.260Z,2.80
2022-12-26T15:00:17.096Z,2.50
2022-12-26T15:05:25.863Z,2.80
2022-12-26T15:10:37.048Z,2.87
2022-12-26T15:15:57.505Z,3.20
2022-12-26T15:21:33.353Z,2.60
2022-12-26T15:26:50.824Z,2.97
2022-12-26T15:32:03.712Z,3.37
2022-12-26T15:37:12.247Z,3.77
2022-12-26T15:42:20.773Z,3.43
2022-12-26T15:47:47.259Z,2.87
2022-12-26T15:52:58.393Z,2.90
2022-12-26T15:58:09.837Z,2.33
2022-12-26T16:03:27.357Z,2.63
2022-12-26T16:08:40.277Z,3.33
2022-12-26T16:13:58.515Z,3.30
2022-12-26T16:19:29.461Z,3.03
2022-12-26T16:24:38.167Z,3.20
2022-12-26T16:29:53.070Z,2.80
2022-12-26T16:35:00.389Z,4.17
2022-12-26T16:40:18.327Z,3.90
2022-12-26T16:45:25.225Z,3.40
2022-12-26T16:50:33.239Z,3.90
2022-12-26T16:55:44.562Z,3.90
2022-12-26T17:01:12.625Z,3.37
2022-12-26T17:06:32.987Z,3.70
2022-12-26T17:11:47.660Z,3.60
2022-12-26T17:17:05.312Z,3.13
2022-12-26T17:22:37.798Z,3.40
2022-12-26T17:27:43.706Z,3.13
2022-12-26T17:32:49.536Z,3.17
2022-12-26T17:38:00.763Z,3.00
2022-12-26T17:43:15.195Z,2.50
2022-12-26T17:48:20.782Z,3.00
2022-12-26T17:53:34.083Z,2.60
2022-12-26T17:58:39.788Z,3.00
2022-12-26T18:03:45.227Z,2.70
2022-12-26T18:08:50.987Z,3.00
2022-12-26T18:13:56.378Z,3.13
2022-12-26T18:19:02.917Z,3.60
2022-12-26T18:24:09.004Z,2.93
2022-12-26T18:29:14.444Z,3.07
2022-12-26T18:34:19.840Z,2.30
2022-12-26T18:39:25.458Z,1.90
2022-12-26T18:44:30.953Z,1.57
2022-12-26T18:49:36.447Z,1.60
2022-12-26T18:54:42.282Z,1.00
2022-12-26T18:59:48.586Z,0.73
2022-12-26T19:04:54.468Z,0.53
2022-12-26T19:10:01.179Z,0.57
2022-12-26T19:15:07.308Z,0.60
2022-12-26T19:20:18.766Z,0.73
2022-12-26T19:25:26.144Z,0.50
2022-12-26T19:30:38.326Z,0.70
2022-12-26T19:35:38.756Z,0.50
2022-12-26T19:40:44.181Z,0.43
2022-12-26T19:45:49.672Z,0.77
2022-12-26T19:50:55.331Z,0.43
2022-12-26T19:56:01.039Z,0.50
2022-12-26T20:01:09.264Z,0.60
2022-12-26T20:06:20.649Z,0.43
2022-12-26T20:11:31.751Z,0.80
2022-12-26T20:17:04.413Z,0.63
2022-12-26T20:21:44.445Z,1.00
2022-12-26T20:26:51.082Z,0.73
2022-12-26T20:31:56.719Z,0.77
2022-12-26T20:37:02.158Z,0.97
2022-12-26T20:42:07.826Z,0.70
2022-12-26T20:47:13.578Z,1.27
2022-12-26T20:52:19.197Z,1.20
2022-12-26T20:57:24.735Z,1.53
2022-12-26T21:02:30.546Z,1.30
2022-12-26T21:07:36.330Z,1.97
2022-12-26T21:12:41.906Z,1.83
2022-12-26T21:17:48.009Z,2.25
2022-12-26T21:22:55.933Z,1.63
2022-12-26T21:28:01.463Z,1.60
2022-12-26T21:33:06.944Z,2.10
2022-12-26T21:38:12.483Z,2.50
2022-12-26T21:43:18.641Z,1.90
2022-12-26T21:48:24.791Z,1.90
2022-12-26T21:53:30.179Z,1.77
2022-12-26T21:58:37.658Z,2.33
2022-12-26T22:04:01.056Z,2.37
2022-12-26T22:09:07.799Z,1.57
2022-12-26T22:14:13.709Z,1.73
2022-12-26T22:19:19.244Z,1.40
2022-12-26T22:24:24.701Z,1.37
2022-12-26T22:29:31.044Z,1.63
2022-12-26T22:34:38.078Z,1.17
2022-12-26T22:39:45.880Z,1.60
2022-12-26T22:44:51.588Z,1.50
2022-12-26T22:49:57.202Z,1.50
2022-12-26T22:55:02.629Z,2.50
2022-12-26T23:00:11.862Z,1.93
2022-12-26T23:05:18.151Z,2.00
2022-12-26T23:10:25.278Z,1.53
2022-12-26T23:15:31.498Z,1.60
2022-12-26T23:20:57.223Z,1.67
2022-12-26T23:26:02.755Z,2.03
2022-12-26T23:31:08.867Z,1.63
2022-12-26T23:36:14.450Z,1.70
2022-12-26T23:41:19.845Z,1.50
2022-12-26T23:46:25.422Z,1.67
2022-12-26T23:51:30.911Z,2.43
2022-12-26T23:56:38.129Z,1.10
